Time;durP1;ratioP1;P1;durP2;ratioP2;P2;SDS_P1;SDS_P2;PMS_P1;PMS_P2;Temp;Humidity;BMP_temperature;BMP_pressure;BME280_temperature;BME280_humidity;BME280_pressure;Samples;Min_cycle;Max_cycle;Signal;HPM_P1;HPM_P2
2022/06/25 00:01:34;;;;;;;5.00;2.28;;;18.80;99.90;;;;;;4936739;29;20055;-75
2022/06/25 00:04:00;;;;;;;5.90;2.15;;;18.90;99.90;;;;;;4936311;29;20102;-75
2022/06/25 00:06:25;;;;;;;4.18;1.85;;;18.90;99.90;;;;;;4936620;29;20035;-75
2022/06/25 00:08:51;;;;;;;4.95;2.10;;;18.70;99.90;;;;;;4935954;29;20027;-75
2022/06/25 00:14:06;;;;;;;5.82;2.17;;;18.80;99.90;;;;;;4936325;29;20515;-75
2022/06/25 00:16:31;;;;;;;7.65;2.83;;;18.80;99.90;;;;;;4935771;29;20043;-75
2022/06/25 00:18:57;;;;;;;6.43;2.50;;;18.80;99.90;;;;;;4935315;29;20027;-75
2022/06/25 00:21:23;;;;;;;5.30;2.45;;;18.70;99.90;;;;;;4936470;29;20039;-75
2022/06/25 00:23:49;;;;;;;8.48;2.15;;;18.80;99.90;;;;;;4935752;29;20028;-75
2022/06/25 00:26:14;;;;;;;6.10;2.28;;;18.90;99.90;;;;;;4935723;29;20106;-75
2022/06/25 00:28:40;;;;;;;3.78;2.50;;;19.00;99.90;;;;;;4934341;29;20023;-75
2022/06/25 00:31:06;;;;;;;5.15;2.60;;;18.80;99.90;;;;;;4936014;29;20110;-75
2022/06/25 00:33:31;;;;;;;5.78;2.10;;;18.80;99.90;;;;;;4936156;29;20032;-75
2022/06/25 00:35:57;;;;;;;9.00;2.42;;;18.80;99.90;;;;;;4935407;29;20091;-75
2022/06/25 00:38:23;;;;;;;7.18;2.05;;;18.70;99.90;;;;;;4935328;29;20027;-75
2022/06/25 00:40:48;;;;;;;5.78;2.05;;;18.70;99.90;;;;;;4936020;29;20043;-75
2022/06/25 00:43:14;;;;;;;7.60;2.45;;;18.70;99.90;;;;;;4936413;29;20408;-75
2022/06/25 00:45:43;;;;;;;4.60;2.03;;;18.60;99.90;;;;;;4935530;29;20428;-75
2022/06/25 00:48:09;;;;;;;5.70;2.03;;;18.50;99.90;;;;;;4935841;29;20444;-75
2022/06/25 00:50:35;;;;;;;4.15;2.15;;;18.50;99.90;;;;;;4927162;29;20122;-75
2022/06/25 00:53:07;;;;;;;6.07;2.58;;;18.70;99.90;;;;;;4916378;29;20499;-75
2022/06/25 00:55:37;;;;;;;6.03;2.03;;;18.70;99.90;;;;;;4916894;29;20024;-75
2022/06/25 00:58:03;;;;;;;4.93;1.98;;;18.70;99.90;;;;;;4916509;29;20028;-76
2022/06/25 01:00:29;;;;;;;4.57;2.20;;;18.60;99.90;;;;;;4916500;29;20472;-75
2022/06/25 01:02:55;;;;;;;4.93;2.10;;;18.70;99.90;;;;;;4918749;29;20031;-75
2022/06/25 01:05:20;;;;;;;4.72;2.05;;;18.60;99.90;;;;;;4935603;29;20493;-75
2022/06/25 01:07:48;;;;;;;4.18;2.00;;;18.60;99.90;;;;;;4933957;29;20392;-75
2022/06/25 01:10:15;;;;;;;3.95;2.33;;;18.60;99.90;;;;;;4935078;29;20114;-75
2022/06/25 01:12:41;;;;;;;4.00;2.22;;;18.60;99.90;;;;;;4935168;29;20038;-75
2022/06/25 01:15:16;;;;;;;7.88;2.42;;;18.50;99.90;;;;;;4935162;29;20510;-75
2022/06/25 01:17:52;;;;;;;6.10;2.08;;;18.50;99.90;;;;;;4934157;29;20365;-75
2022/06/25 01:20:20;;;;;;;4.22;2.17;;;18.40;99.90;;;;;;4934569;29;20050;-75
2022/06/25 01:22:47;;;;;;;4.55;2.38;;;18.50;99.90;;;;;;4935142;29;20020;-75
2022/06/25 01:25:13;;;;;;;5.78;2.00;;;18.50;99.90;;;;;;4934213;29;20062;-76
2022/06/25 01:27:39;;;;;;;5.63;2.30;;;18.40;99.90;;;;;;4935287;29;20024;-75
2022/06/25 01:30:07;;;;;;;6.10;2.03;;;18.40;99.90;;;;;;4935072;29;20032;-75
2022/06/25 01:32:33;;;;;;;4.70;2.28;;;18.30;99.90;;;;;;4935319;29;20506;-75
2022/06/25 01:34:58;;;;;;;2.33;1.65;;;18.30;99.90;;;;;;4934849;29;20028;-75
2022/06/25 01:37:24;;;;;;;3.00;1.60;;;18.30;99.90;;;;;;4932306;29;20023;-74
2022/06/25 01:39:57;;;;;;;6.05;2.30;;;18.20;99.90;;;;;;4935332;29;20091;-75
2022/06/25 01:43:09;;;;;;;4.38;2.00;;;18.20;99.90;;;;;;4935134;29;20103;-75
2022/06/25 01:45:11;;;;;;;5.18;1.90;;;18.20;99.90;;;;;;4937428;29;20040;-75
2022/06/25 01:47:37;;;;;;;3.97;2.05;;;18.20;99.90;;;;;;4935231;29;20020;-75
2022/06/25 01:50:06;;;;;;;6.65;2.00;;;18.20;99.90;;;;;;4934768;29;20032;-75
2022/06/25 01:52:32;;;;;;;6.13;1.92;;;18.20;99.90;;;;;;4934802;29;20084;-75
2022/06/25 01:54:58;;;;;;;4.95;1.65;;;18.10;99.90;;;;;;4935135;29;20034;-75
2022/06/25 01:57:23;;;;;;;3.75;2.10;;;18.20;99.90;;;;;;4934702;29;20028;-75
2022/06/25 01:59:49;;;;;;;2.90;1.85;;;18.20;99.90;;;;;;4935130;29;20020;-75
2022/06/25 02:02:15;;;;;;;4.20;1.50;;;18.10;99.90;;;;;;4934933;29;20035;-75
2022/06/25 02:04:41;;;;;;;3.33;1.77;;;18.10;99.90;;;;;;4934700;29;20038;-75
2022/06/25 02:07:08;;;;;;;2.22;1.52;;;18.00;99.90;;;;;;4933497;29;20032;-75
2022/06/25 02:09:33;;;;;;;3.35;1.40;;;18.00;99.90;;;;;;4934654;29;20051;-74
2022/06/25 02:11:59;;;;;;;3.28;1.58;;;18.10;99.90;;;;;;4935129;29;20090;-76
2022/06/25 02:14:26;;;;;;;5.43;1.40;;;18.10;99.90;;;;;;4934684;29;20031;-76
2022/06/25 02:16:52;;;;;;;2.80;1.40;;;18.10;99.90;;;;;;4934890;29;20139;-75
2022/06/25 02:19:18;;;;;;;2.72;1.42;;;18.00;99.90;;;;;;4934137;29;20019;-75
2022/06/25 02:21:44;;;;;;;4.57;1.38;;;18.10;99.90;;;;;;4934949;29;20016;-75
2022/06/25 02:24:10;;;;;;;3.08;1.77;;;18.10;99.90;;;;;;4934444;29;20039;-75
2022/06/25 02:26:35;;;;;;;4.45;1.52;;;18.00;99.90;;;;;;4934698;29;20039;-75
2022/06/25 02:29:01;;;;;;;4.88;1.60;;;18.10;99.90;;;;;;4935116;29;20378;-75
2022/06/25 02:31:28;;;;;;;3.33;1.40;;;18.00;99.90;;;;;;4934460;29;20031;-74
2022/06/25 02:33:54;;;;;;;2.90;1.50;;;18.10;99.90;;;;;;4933904;29;20031;-75
2022/06/25 02:36:19;;;;;;;3.25;1.70;;;18.10;99.90;;;;;;4934621;29;20032;-75
2022/06/25 02:38:45;;;;;;;2.47;1.58;;;18.20;99.90;;;;;;4934980;29;20024;-75
2022/06/25 02:41:11;;;;;;;2.40;1.42;;;18.20;99.90;;;;;;4936674;29;20480;-74
2022/06/25 02:43:37;;;;;;;10.45;1.58;;;18.20;99.90;;;;;;4928565;29;20028;-75
2022/06/25 02:46:03;;;;;;;4.13;1.58;;;18.10;99.90;;;;;;4919203;29;20064;-75
2022/06/25 02:48:28;;;;;;;5.13;1.75;;;18.10;99.90;;;;;;4924049;29;20078;-75
2022/06/25 02:50:54;;;;;;;2.60;1.30;;;18.00;99.90;;;;;;4937758;29;20381;-75
2022/06/25 02:53:20;;;;;;;1.90;1.17;;;17.90;99.90;;;;;;4937340;29;20083;-74
2022/06/25 03:01:13;;;;;;;6.78;1.58;;;17.70;99.90;;;;;;4937807;29;20033;-76
2022/06/25 03:03:39;;;;;;;4.40;1.30;;;17.60;99.90;;;;;;4937152;29;20119;-75
2022/06/25 03:06:05;;;;;;;2.28;1.13;;;17.60;99.90;;;;;;4937955;29;20070;-75
2022/06/25 03:08:30;;;;;;;2.97;1.40;;;17.50;99.90;;;;;;4937391;29;20035;-75
2022/06/25 03:10:56;;;;;;;3.15;1.63;;;17.50;99.90;;;;;;4937469;29;20055;-75
2022/06/25 03:13:22;;;;;;;3.17;1.88;;;17.50;99.90;;;;;;4937247;29;20024;-75
2022/06/25 03:15:48;;;;;;;1.50;1.20;;;17.60;99.90;;;;;;4937186;29;20384;-75
2022/06/25 03:18:14;;;;;;;3.08;1.45;;;17.70;99.90;;;;;;4936975;29;20102;-75
2022/06/25 03:20:40;;;;;;;2.97;1.40;;;17.80;99.90;;;;;;4936453;29;20032;-76
2022/06/25 03:23:05;;;;;;;2.75;1.38;;;17.80;99.90;;;;;;4937450;29;20016;-75
2022/06/25 03:25:31;;;;;;;4.32;1.65;;;17.70;99.90;;;;;;4937469;29;20507;-76
2022/06/25 03:27:57;;;;;;;2.92;1.75;;;17.60;99.90;;;;;;4937265;29;20028;-75
2022/06/25 03:30:23;;;;;;;4.43;1.88;;;17.50;99.90;;;;;;4936992;29;20034;-75
2022/06/25 03:32:49;;;;;;;5.07;2.03;;;17.40;99.90;;;;;;4936509;29;20440;-75
2022/06/25 03:35:14;;;;;;;9.27;2.13;;;17.30;99.90;;;;;;4937475;29;20059;-75
2022/06/25 03:37:40;;;;;;;3.33;2.10;;;17.20;99.90;;;;;;4937219;29;20484;-75
2022/06/25 03:40:06;;;;;;;6.10;2.65;;;17.10;99.90;;;;;;4930834;29;20032;-75
2022/06/25 03:42:32;;;;;;;2.50;1.92;;;17.10;99.90;;;;;;4918479;29;20499;-75
2022/06/25 03:44:58;;;;;;;9.57;1.80;;;17.10;99.90;;;;;;4918043;29;20028;-75
2022/06/25 03:47:23;;;;;;;2.15;1.52;;;17.10;99.90;;;;;;4933340;29;20358;-75
2022/06/25 03:49:49;;;;;;;5.78;2.05;;;17.00;99.90;;;;;;4936921;29;20079;-75
2022/06/25 03:52:15;;;;;;;6.97;2.22;;;17.00;99.90;;;;;;4937244;29;20369;-75
2022/06/25 03:54:41;;;;;;;5.40;2.22;;;17.00;99.90;;;;;;4936568;29;20031;-75
2022/06/25 03:57:06;;;;;;;3.40;2.05;;;17.10;99.90;;;;;;4936814;29;20023;-75
2022/06/25 03:59:32;;;;;;;3.17;2.08;;;17.10;99.90;;;;;;4936431;29;20031;-74
2022/06/25 04:01:58;;;;;;;5.63;2.40;;;17.10;99.90;;;;;;4935854;29;20015;-75
2022/06/25 04:04:24;;;;;;;4.70;1.88;;;17.10;99.90;;;;;;4936273;29;20384;-76
2022/06/25 04:06:49;;;;;;;3.03;2.22;;;17.10;99.90;;;;;;4936596;29;20067;-75
2022/06/25 04:09:15;;;;;;;7.18;2.40;;;16.90;99.90;;;;;;4936266;29;20055;-75
2022/06/25 04:11:40;;;;;;;4.43;2.38;;;17.10;99.90;;;;;;4936578;29;20039;-75
2022/06/25 04:14:09;;;;;;;6.90;2.40;;;17.10;99.90;;;;;;4936156;29;20040;-75
2022/06/25 04:16:35;;;;;;;8.10;2.55;;;17.20;99.90;;;;;;4935145;29;20099;-75
2022/06/25 04:19:00;;;;;;;6.63;2.22;;;17.20;99.90;;;;;;4936245;29;20555;-75
2022/06/25 04:21:27;;;;;;;3.55;2.30;;;17.10;99.90;;;;;;4936269;29;20030;-75
2022/06/25 04:23:52;;;;;;;2.92;2.17;;;17.10;99.90;;;;;;4936103;29;20114;-75
2022/06/25 04:26:18;;;;;;;12.20;2.60;;;17.00;99.90;;;;;;4935579;29;20063;-75
2022/06/25 04:31:29;;;;;;;6.57;2.50;;;17.00;99.90;;;;;;4916737;29;20038;-74
2022/06/25 04:33:55;;;;;;;3.42;2.20;;;16.90;99.90;;;;;;4916792;29;20047;-75
2022/06/25 04:36:20;;;;;;;3.67;2.50;;;16.80;99.90;;;;;;4923152;29;20028;-75
2022/06/25 04:38:46;;;;;;;7.28;2.47;;;16.90;99.90;;;;;;4935947;29;20034;-75
2022/06/25 04:41:12;;;;;;;6.68;2.83;;;16.80;99.90;;;;;;4935890;29;20067;-75
2022/06/25 04:43:38;;;;;;;11.10;2.83;;;16.80;99.90;;;;;;4935281;29;20391;-75
2022/06/25 04:46:03;;;;;;;5.75;2.83;;;16.80;99.90;;;;;;4935881;29;20054;-75
2022/06/25 04:48:29;;;;;;;5.38;2.28;;;16.80;99.90;;;;;;4935747;29;20033;-76
2022/06/25 04:50:55;;;;;;;7.22;2.90;;;16.80;99.90;;;;;;4936000;29;20059;-75
2022/06/25 04:53:20;;;;;;;8.93;2.92;;;16.90;99.90;;;;;;4935902;29;20107;-75
2022/06/25 04:55:46;;;;;;;5.80;2.67;;;16.80;99.90;;;;;;4935822;29;20475;-75
2022/06/25 04:58:12;;;;;;;11.93;3.15;;;16.80;99.90;;;;;;4935021;29;20054;-75
2022/06/25 05:00:38;;;;;;;4.22;2.53;;;16.90;99.90;;;;;;4935495;29;20083;-75
2022/06/25 05:03:03;;;;;;;4.60;2.40;;;16.90;99.90;;;;;;4935498;29;20099;-75
2022/06/25 05:05:29;;;;;;;6.80;3.05;;;16.90;99.90;;;;;;4935910;29;20460;-75
2022/06/25 05:07:55;;;;;;;3.72;2.72;;;16.80;99.90;;;;;;4935430;29;20039;-75
2022/06/25 05:10:20;;;;;;;4.47;2.80;;;16.90;99.90;;;;;;4935431;29;20134;-75
2022/06/25 05:15:30;;;;;;;7.55;2.58;;;16.70;99.90;;;;;;4921664;29;20051;-75
2022/06/25 05:17:56;;;;;;;7.35;2.90;;;16.60;99.90;;;;;;4934422;29;20032;-74
2022/06/25 05:20:22;;;;;;;9.30;2.70;;;16.70;99.90;;;;;;4935515;29;20024;-75
2022/06/25 05:22:48;;;;;;;7.88;3.00;;;16.70;99.90;;;;;;4933864;29;20515;-75
2022/06/25 05:25:13;;;;;;;3.92;2.50;;;16.70;99.90;;;;;;4935472;29;20027;-74
2022/06/25 05:27:39;;;;;;;10.02;2.60;;;16.70;99.90;;;;;;4934626;29;20024;-75
2022/06/25 05:30:06;;;;;;;4.13;2.78;;;16.80;99.90;;;;;;4935181;29;20612;-75
2022/06/25 05:32:32;;;;;;;10.57;3.20;;;16.80;99.90;;;;;;4935294;29;20472;-75
2022/06/25 05:34:57;;;;;;;7.30;2.80;;;16.90;99.90;;;;;;4934911;29;20043;-75
2022/06/25 05:37:24;;;;;;;4.68;2.80;;;17.00;99.90;;;;;;4935310;29;20039;-75
2022/06/25 05:39:51;;;;;;;4.47;2.42;;;17.20;99.90;;;;;;4935121;29;20151;-75
2022/06/25 05:42:17;;;;;;;7.28;2.42;;;17.30;99.90;;;;;;4934387;29;20499;-75
2022/06/25 05:44:43;;;;;;;7.00;2.40;;;17.40;99.90;;;;;;4934797;29;20035;-75
2022/06/25 05:47:09;;;;;;;10.13;2.72;;;17.40;99.90;;;;;;4934918;29;20099;-75
2022/06/25 05:49:35;;;;;;;3.53;2.15;;;17.40;99.90;;;;;;4935147;29;20110;-75
2022/06/25 05:52:01;;;;;;;4.55;2.20;;;17.40;99.90;;;;;;4935162;29;20032;-75
2022/06/25 05:54:27;;;;;;;5.90;2.28;;;17.50;99.90;;;;;;4934983;29;20039;-75
2022/06/25 05:56:53;;;;;;;4.22;2.30;;;17.60;99.90;;;;;;4934474;29;20051;-75
2022/06/25 05:59:18;;;;;;;3.65;2.22;;;17.70;99.90;;;;;;4934421;29;20062;-75
2022/06/25 06:01:44;;;;;;;7.75;2.75;;;17.70;99.90;;;;;;4933691;29;20091;-76
2022/06/25 06:04:10;;;;;;;8.90;3.55;;;17.70;99.90;;;;;;4933718;29;20032;-75
2022/06/25 06:06:35;;;;;;;7.85;2.55;;;17.80;99.90;;;;;;4935197;29;20020;-75
2022/06/25 06:09:01;;;;;;;4.40;2.45;;;17.80;99.90;;;;;;4934337;29;20035;-75
2022/06/25 06:11:27;;;;;;;6.10;2.33;;;17.90;99.90;;;;;;4934444;29;20036;-74
2022/06/25 06:13:53;;;;;;;5.93;2.28;;;18.00;99.90;;;;;;4924905;29;20039;-75
2022/06/25 06:16:18;;;;;;;6.25;2.40;;;18.00;99.90;;;;;;4938188;29;20034;-78
2022/06/25 06:18:44;;;;;;;5.78;1.90;;;18.10;99.90;;;;;;4932876;29;20028;-75
2022/06/25 06:21:09;;;;;;;7.72;1.88;;;18.10;99.90;;;;;;4930226;29;20080;-75
2022/06/25 06:23:35;;;;;;;4.88;2.22;;;18.30;99.90;;;;;;4932910;29;20051;-76
2022/06/25 06:26:01;;;;;;;8.43;2.03;;;18.30;99.90;;;;;;4930465;29;20460;-75
2022/06/25 06:28:26;;;;;;;3.03;1.67;;;18.40;99.90;;;;;;4935404;29;20371;-76
2022/06/25 06:30:52;;;;;;;5.10;2.40;;;18.50;99.90;;;;;;4934188;29;20388;-76
2022/06/25 06:33:17;;;;;;;4.85;1.90;;;18.50;99.90;;;;;;4934379;29;20496;-80
2022/06/25 06:35:43;;;;;;;7.50;2.05;;;18.50;99.90;;;;;;4933989;29;20028;-77
2022/06/25 06:38:09;;;;;;;9.60;2.50;;;18.50;99.90;;;;;;4935411;29;20039;-76
2022/06/25 06:40:34;;;;;;;3.38;1.88;;;18.60;99.90;;;;;;4934287;29;20023;-76
2022/06/25 06:43:00;;;;;;;3.20;1.85;;;18.60;99.90;;;;;;4935541;29;20050;-75
2022/06/25 06:45:26;;;;;;;3.10;1.77;;;18.70;99.90;;;;;;4936209;29;20034;-76
2022/06/25 06:47:52;;;;;;;8.02;1.90;;;18.70;99.90;;;;;;4934500;29;20392;-75
2022/06/25 06:50:18;;;;;;;3.67;2.30;;;18.70;99.90;;;;;;4936072;29;20024;-75
2022/06/25 06:52:44;;;;;;;6.15;1.85;;;18.80;99.90;;;;;;4937217;29;20050;-75
2022/06/25 06:55:09;;;;;;;7.03;2.25;;;18.80;99.90;;;;;;4937442;29;20080;-75
2022/06/25 06:57:35;;;;;;;2.45;1.88;;;18.90;99.90;;;;;;4937719;29;20373;-75
2022/06/25 07:00:04;;;;;;;3.38;1.60;;;19.00;99.90;;;;;;4937682;29;20024;-75
2022/06/25 07:02:30;;;;;;;4.22;1.60;;;19.20;99.90;;;;;;4937692;29;20464;-75
2022/06/25 07:04:56;;;;;;;8.18;1.55;;;19.30;99.90;;;;;;4937792;29;20098;-75
2022/06/25 07:07:22;;;;;;;2.92;1.40;;;19.50;99.90;;;;;;4937856;29;20393;-78
2022/06/25 07:09:47;;;;;;;6.82;1.65;;;19.70;99.90;;;;;;4934651;29;20066;-85
2022/06/25 07:12:13;;;;;;;6.47;1.85;;;19.90;99.90;;;;;;4935997;29;20042;-82
2022/06/25 07:14:39;;;;;;;3.15;1.60;;;20.00;99.90;;;;;;4927308;29;20103;-84
2022/06/25 07:17:04;;;;;;;5.10;1.50;;;20.20;99.90;;;;;;4936144;29;20026;-87
2022/06/25 07:19:30;;;;;;;3.95;1.55;;;20.30;99.90;;;;;;4923932;29;20056;-84
2022/06/25 07:21:57;;;;;;;4.47;1.63;;;20.40;99.90;;;;;;4918582;29;20052;-83
2022/06/25 07:24:23;;;;;;;5.15;1.65;;;20.50;99.90;;;;;;4918442;29;20059;-83
2022/06/25 07:26:49;;;;;;;6.07;1.58;;;20.60;99.90;;;;;;4922094;29;20084;-85
2022/06/25 07:29:14;;;;;;;5.72;1.50;;;20.80;99.90;;;;;;4931199;29;20035;-80
2022/06/25 07:31:40;;;;;;;4.65;1.75;;;20.90;99.90;;;;;;4925967;29;20080;-83
2022/06/25 07:34:06;;;;;;;4.30;1.60;;;21.00;99.90;;;;;;4918228;29;20051;-85
2022/06/25 07:36:32;;;;;;;3.90;1.30;;;21.10;99.90;;;;;;4928855;29;20023;-81
2022/06/25 07:38:57;;;;;;;3.50;1.60;;;21.20;99.90;;;;;;4937102;29;20019;-84
2022/06/25 07:41:23;;;;;;;2.75;1.45;;;21.30;99.90;;;;;;4936987;29;20502;-81
2022/06/25 07:43:49;;;;;;;5.95;1.40;;;21.40;99.90;;;;;;4937194;29;20032;-76
2022/06/25 07:46:15;;;;;;;2.00;1.35;;;21.60;99.90;;;;;;4935634;29;20445;-76
2022/06/25 07:48:41;;;;;;;6.63;1.58;;;21.70;99.90;;;;;;4932426;29;20099;-79
2022/06/25 07:53:51;;;;;;;3.13;1.30;;;21.90;99.90;;;;;;4918667;29;20039;-78
2022/06/25 07:56:17;;;;;;;4.32;1.20;;;22.10;99.90;;;;;;4917253;29;20132;-77
2022/06/25 07:58:43;;;;;;;4.80;1.00;;;22.10;99.90;;;;;;4929463;29;20095;-77
2022/06/25 08:01:08;;;;;;;3.22;1.20;;;22.20;99.90;;;;;;4936542;29;20170;-79
2022/06/25 08:03:34;;;;;;;6.32;1.45;;;22.40;99.90;;;;;;4936744;29;20023;-78
2022/06/25 08:06:01;;;;;;;2.63;1.20;;;22.50;99.90;;;;;;4933107;29;20518;-79
2022/06/25 08:08:26;;;;;;;3.30;1.20;;;22.70;99.80;;;;;;4933756;29;20427;-78
2022/06/25 08:10:52;;;;;;;3.17;1.30;;;22.70;99.90;;;;;;4935949;29;20052;-77
2022/06/25 08:13:18;;;;;;;2.28;1.23;;;22.90;99.50;;;;;;4922577;29;20453;-78
2022/06/25 08:15:44;;;;;;;4.70;1.05;;;23.20;99.10;;;;;;4925484;29;20042;-78
2022/06/25 08:18:10;;;;;;;3.85;1.17;;;23.20;98.20;;;;;;4936033;29;20024;-77
2022/06/25 08:20:35;;;;;;;5.43;1.10;;;23.30;98.10;;;;;;4935072;29;20394;-80
2022/06/25 08:23:01;;;;;;;2.22;1.20;;;23.40;97.40;;;;;;4927973;29;20024;-79
2022/06/25 08:25:27;;;;;;;2.25;1.23;;;23.50;97.00;;;;;;4929683;29;20091;-78
2022/06/25 08:27:53;;;;;;;4.20;1.30;;;23.50;97.20;;;;;;4930208;29;20078;-77
2022/06/25 08:30:23;;;;;;;3.72;1.23;;;23.60;96.80;;;;;;4936356;29;20027;-83
2022/06/25 08:32:49;;;;;;;2.90;0.90;;;23.80;95.70;;;;;;4936562;29;20031;-83
2022/06/25 08:35:15;;;;;;;3.10;1.05;;;24.00;95.50;;;;;;4935962;29;20027;-84
2022/06/25 08:37:46;;;;;;;4.28;1.05;;;24.30;95.00;;;;;;4935586;29;20108;-84
2022/06/25 08:40:12;;;;;;;7.25;1.05;;;24.50;94.60;;;;;;4936107;29;20024;-84
2022/06/25 08:42:38;;;;;;;6.40;1.10;;;24.90;94.20;;;;;;4925886;29;20388;-84
2022/06/25 08:45:04;;;;;;;2.42;0.80;;;25.20;94.00;;;;;;4917322;29;20024;-84
2022/06/25 08:47:30;;;;;;;5.55;1.20;;;25.10;92.40;;;;;;4932995;29;20023;-83
2022/06/25 08:49:57;;;;;;;1.70;0.90;;;25.30;92.30;;;;;;4935929;29;20388;-83
2022/06/25 08:52:23;;;;;;;3.53;1.05;;;25.30;91.80;;;;;;4936001;29;20506;-83
2022/06/25 08:54:50;;;;;;;7.10;1.10;;;25.00;91.70;;;;;;4935638;29;20039;-83
2022/06/25 08:57:16;;;;;;;2.70;0.90;;;25.00;91.50;;;;;;4936061;29;20020;-83
2022/06/25 08:59:42;;;;;;;6.80;0.90;;;25.00;91.70;;;;;;4934590;29;20035;-83
2022/06/25 09:02:08;;;;;;;4.82;1.10;;;25.00;90.50;;;;;;4935848;29;20507;-81
2022/06/25 09:04:33;;;;;;;3.15;1.08;;;25.10;90.50;;;;;;4933524;29;20035;-81
2022/06/25 09:07:14;;;;;;;2.53;0.95;;;25.40;90.60;;;;;;4935954;29;20028;-83
2022/06/25 09:09:45;;;;;;;3.17;1.13;;;25.80;90.30;;;;;;4935541;29;20051;-81
2022/06/25 09:12:13;;;;;;;6.32;1.00;;;25.50;88.50;;;;;;4935748;29;20135;-81
2022/06/25 09:14:39;;;;;;;1.20;0.82;;;25.40;89.70;;;;;;4933920;29;20036;-81
2022/06/25 09:17:10;;;;;;;2.60;1.08;;;25.30;89.60;;;;;;4917510;29;20028;-81
2022/06/25 09:19:39;;;;;;;2.03;0.95;;;25.40;90.50;;;;;;4916256;29;20072;-80
2022/06/25 09:22:07;;;;;;;2.67;1.20;;;25.50;89.90;;;;;;4916723;29;20032;-81
2022/06/25 09:24:41;;;;;;;6.63;1.10;;;25.50;89.70;;;;;;4916519;29;20035;-80
2022/06/25 09:27:07;;;;;;;5.85;1.10;;;25.40;89.00;;;;;;4915443;29;20400;-80
2022/06/25 09:29:42;;;;;;;4.47;1.00;;;26.10;88.70;;;;;;4916649;29;20107;-80
2022/06/25 09:32:09;;;;;;;2.53;1.20;;;25.90;87.30;;;;;;4916657;29;20030;-80
2022/06/25 09:34:37;;;;;;;3.83;1.15;;;25.70;88.10;;;;;;4916163;29;20032;-82
2022/06/25 09:37:26;;;;;;;2.47;1.33;;;26.00;89.30;;;;;;4915192;29;20071;-80
2022/06/25 09:39:54;;;;;;;7.07;0.82;;;26.10;88.40;;;;;;4916507;29;20027;-80
2022/06/25 09:42:20;;;;;;;1.70;1.00;;;25.80;86.70;;;;;;4923980;29;20076;-79
2022/06/25 09:44:47;;;;;;;4.00;0.80;;;25.60;87.10;;;;;;4916597;29;20051;-81
2022/06/25 09:47:13;;;;;;;1.30;0.85;;;25.60;87.60;;;;;;4924317;29;20020;-80
2022/06/25 09:49:40;;;;;;;2.85;1.10;;;25.80;87.40;;;;;;4935656;29;20041;-81
2022/06/25 09:52:06;;;;;;;3.80;1.30;;;25.70;87.70;;;;;;4925343;29;20024;-80
2022/06/25 09:54:32;;;;;;;3.75;1.13;;;25.70;88.90;;;;;;4920048;29;20560;-81
2022/06/25 09:57:00;;;;;;;3.20;1.00;;;25.60;88.90;;;;;;4920488;29;20129;-79
2022/06/25 09:59:30;;;;;;;2.22;1.05;;;25.60;87.80;;;;;;4920202;29;20028;-80
2022/06/25 10:02:01;;;;;;;3.85;1.10;;;25.40;87.80;;;;;;4931952;29;20027;-80
2022/06/25 10:04:30;;;;;;;2.85;1.20;;;25.30;86.30;;;;;;4937601;29;20031;-79
2022/06/25 10:06:57;;;;;;;3.72;1.00;;;25.40;86.70;;;;;;4938021;29;20407;-80
2022/06/25 10:09:27;;;;;;;2.95;1.20;;;25.40;87.70;;;;;;4934874;29;20055;-79
2022/06/25 10:11:54;;;;;;;2.40;1.10;;;25.90;86.20;;;;;;4937772;29;20051;-80
2022/06/25 10:14:20;;;;;;;1.90;1.13;;;25.80;85.40;;;;;;4932064;29;20088;-79
2022/06/25 10:16:46;;;;;;;3.33;1.10;;;26.10;86.00;;;;;;4934889;29;20102;-79
2022/06/25 10:19:16;;;;;;;2.28;1.13;;;26.10;88.30;;;;;;4938842;29;20082;-80
2022/06/25 10:21:42;;;;;;;2.40;1.20;;;26.30;88.00;;;;;;4937674;29;20047;-79
2022/06/25 10:24:09;;;;;;;4.13;1.33;;;26.30;88.20;;;;;;4938777;29;20472;-80
2022/06/25 10:26:36;;;;;;;5.60;1.50;;;26.30;88.70;;;;;;4938889;29;20019;-80
2022/06/25 10:29:27;;;;;;;2.88;1.05;;;26.30;86.20;;;;;;4938712;29;20028;-79
2022/06/25 10:32:19;;;;;;;1.67;1.10;;;26.70;86.40;;;;;;4919407;29;20451;-81
2022/06/25 10:34:58;;;;;;;2.70;1.23;;;26.60;87.00;;;;;;4919405;29;20119;-77
2022/06/25 10:37:25;;;;;;;4.28;1.15;;;26.60;88.00;;;;;;4928854;29;20024;-79
2022/06/25 10:39:55;;;;;;;2.55;1.10;;;26.70;88.10;;;;;;4938361;29;20031;-79
2022/06/25 10:45:31;;;;;;;5.00;1.17;;;26.70;87.00;;;;;;4937959;29;20050;-81
2022/06/25 10:47:59;;;;;;;6.78;1.48;;;27.30;87.30;;;;;;4937872;29;20480;-80
2022/06/25 10:50:27;;;;;;;7.68;1.60;;;27.80;84.00;;;;;;4937471;29;20027;-78
2022/06/25 10:53:02;;;;;;;3.40;1.00;;;27.80;83.80;;;;;;4937802;29;20031;-76
2022/06/25 10:55:40;;;;;;;2.05;1.17;;;27.80;83.80;;;;;;4937526;29;20050;-79
2022/06/25 10:58:16;;;;;;;4.03;1.23;;;28.10;84.20;;;;;;4938460;29;20024;-79
2022/06/25 11:01:01;;;;;;;4.07;1.23;;;28.80;81.90;;;;;;4936350;29;20099;-79
2022/06/25 11:03:32;;;;;;;4.25;1.13;;;28.60;81.80;;;;;;4938252;29;20031;-79
2022/06/25 11:06:03;;;;;;;2.58;1.10;;;28.40;82.30;;;;;;4938187;29;20035;-79
2022/06/25 11:08:37;;;;;;;4.72;1.20;;;27.70;81.20;;;;;;4938051;29;20028;-79
2022/06/25 11:11:05;;;;;;;3.97;1.20;;;27.10;85.10;;;;;;4919935;29;20531;-78
2022/06/25 11:13:32;;;;;;;5.53;1.50;;;27.10;85.80;;;;;;4918913;29;20103;-78
2022/06/25 11:15:58;;;;;;;4.38;1.50;;;26.80;86.00;;;;;;4927829;29;20032;-84
2022/06/25 11:18:23;;;;;;;4.72;1.65;;;26.80;87.70;;;;;;4937710;29;20023;-78
2022/06/25 11:20:51;;;;;;;6.53;1.90;;;26.90;88.70;;;;;;4937572;29;20027;-79
2022/06/25 11:23:17;;;;;;;6.43;1.67;;;26.80;88.80;;;;;;4937840;29;20078;-81
2022/06/25 11:28:48;;;;;;;4.72;1.50;;;26.70;90.00;;;;;;4918499;29;20054;-78
2022/06/25 11:31:19;;;;;;;5.72;2.08;;;26.50;90.10;;;;;;4918134;29;20028;-79
2022/06/25 11:33:46;;;;;;;3.53;1.88;;;26.40;90.60;;;;;;4918705;29;20035;-79
2022/06/25 11:36:12;;;;;;;7.28;2.20;;;26.10;90.90;;;;;;4923530;29;20032;-82
2022/06/25 11:38:40;;;;;;;4.18;2.00;;;26.10;92.40;;;;;;4937161;29;20020;-79
2022/06/25 11:41:06;;;;;;;4.95;2.22;;;26.00;91.70;;;;;;4937472;29;20034;-80
2022/06/25 11:43:34;;;;;;;4.28;2.15;;;26.10;92.10;;;;;;4922970;29;20103;-80
2022/06/25 11:46:01;;;;;;;4.18;2.00;;;26.10;92.20;;;;;;4934414;29;20019;-80
2022/06/25 11:48:31;;;;;;;7.88;2.40;;;26.00;92.50;;;;;;4936238;29;20032;-80
2022/06/25 11:51:01;;;;;;;6.93;1.98;;;25.70;92.30;;;;;;4937198;29;20065;-81
2022/06/25 11:53:27;;;;;;;5.78;1.83;;;25.50;92.70;;;;;;4937157;29;20208;-80
2022/06/25 11:55:59;;;;;;;9.00;1.90;;;25.40;92.80;;;;;;4937069;29;20102;-79
2022/06/25 11:58:26;;;;;;;3.97;1.75;;;25.40;93.30;;;;;;4927305;29;20021;-80
2022/06/25 12:00:56;;;;;;;6.47;2.33;;;25.40;93.10;;;;;;4918112;29;20453;-79
2022/06/25 12:03:27;;;;;;;3.22;1.55;;;25.50;93.30;;;;;;4935058;29;20020;-86
2022/06/25 12:05:59;;;;;;;6.23;1.67;;;25.50;92.90;;;;;;4935594;29;20106;-78
2022/06/25 12:08:26;;;;;;;2.53;1.50;;;25.70;92.80;;;;;;4933857;29;20030;-77
2022/06/25 12:10:53;;;;;;;4.68;1.90;;;26.00;92.70;;;;;;4936452;29;20127;-77
2022/06/25 12:13:20;;;;;;;3.35;2.05;;;26.10;92.00;;;;;;4935350;29;20036;-77
2022/06/25 12:15:49;;;;;;;4.18;1.80;;;26.30;91.90;;;;;;4936479;29;20023;-77
2022/06/25 12:18:15;;;;;;;6.00;1.42;;;26.50;91.80;;;;;;4934834;29;20380;-77
2022/06/25 12:20:57;;;;;;;4.47;1.67;;;26.60;91.30;;;;;;4934579;29;20041;-77
2022/06/25 12:23:23;;;;;;;;;;;26.70;90.60;;;;;;4936871;29;20036;-77
2022/06/25 12:25:48;;;;;;;5.22;1.55;;;26.30;91.00;;;;;;4936210;29;19962;-78
2022/06/25 12:28:15;;;;;;;5.75;1.55;;;26.50;90.90;;;;;;4917543;29;20034;-77
2022/06/25 12:30:41;;;;;;;5.75;1.83;;;26.30;90.50;;;;;;4916655;29;20481;-77
2022/06/25 12:33:13;;;;;;;2.40;1.35;;;26.50;90.90;;;;;;4917257;29;20031;-77
2022/06/25 12:35:43;;;;;;;2.83;1.30;;;26.30;91.20;;;;;;4917865;29;20039;-77
2022/06/25 12:38:11;;;;;;;2.55;1.83;;;26.10;91.10;;;;;;4936474;29;20024;-77
2022/06/25 12:40:40;;;;;;;4.22;1.67;;;26.10;91.80;;;;;;4936545;29;20028;-78
2022/06/25 12:43:09;;;;;;;4.60;2.00;;;25.80;91.80;;;;;;4935159;29;20385;-77
2022/06/25 12:45:38;;;;;;;4.70;1.95;;;25.80;91.90;;;;;;4934361;29;20034;-77
2022/06/25 12:48:06;;;;;;;6.28;2.00;;;25.90;92.30;;;;;;4917212;29;20016;-77
2022/06/25 12:50:34;;;;;;;3.50;1.48;;;25.90;92.20;;;;;;4917463;29;20028;-77
2022/06/25 12:53:10;;;;;;;6.30;1.92;;;25.80;92.40;;;;;;4917110;29;20373;-77
2022/06/25 12:55:36;;;;;;;8.65;2.13;;;25.60;93.00;;;;;;4917334;29;20107;-77
2022/06/25 12:58:11;;;;;;;5.80;1.60;;;25.60;92.70;;;;;;4915616;29;20031;-77
2022/06/25 13:00:38;;;;;;;5.82;1.90;;;25.60;92.80;;;;;;4917009;29;20048;-77
2022/06/25 13:03:07;;;;;;;2.65;1.63;;;25.60;92.70;;;;;;4917085;29;20031;-78
2022/06/25 13:05:34;;;;;;;3.92;1.60;;;25.70;93.10;;;;;;4917324;29;20032;-77
2022/06/25 13:08:01;;;;;;;4.50;1.98;;;25.70;92.50;;;;;;4924138;29;20484;-76
2022/06/25 13:10:27;;;;;;;3.60;1.60;;;25.60;92.20;;;;;;4935304;29;20095;-77